Time;durP1;ratioP1;P1;durP2;ratioP2;P2;SDS_P1;SDS_P2;PMS_P1;PMS_P2;Temp;Humidity;BMP_temperature;BMP_pressure;BME280_temperature;BME280_humidity;BME280_pressure;Samples;Min_cycle;Max_cycle;Signal;HPM_P1;HPM_P2
2022/09/13 00:00:56;;;;;;;1.40;0.90;;;;;;;14.87;51.63;92703.56;2050143;70;20549;-75
2022/09/13 00:03:22;;;;;;;5.38;0.80;;;;;;;14.92;52.66;92699.53;2049272;70;20169;-75
2022/09/13 00:05:50;;;;;;;4.82;1.05;;;;;;;15.10;51.69;92702.44;2047783;70;20146;-75
2022/09/13 00:08:16;;;;;;;4.10;1.00;;;;;;;14.80;51.90;92692.56;2046388;70;20188;-76
2022/09/13 00:10:43;;;;;;;1.45;0.80;;;;;;;14.88;51.30;92695.78;2049169;70;20954;-75
2022/09/13 00:13:11;;;;;;;1.17;0.90;;;;;;;15.04;50.20;92693.69;2049251;70;20158;-76
2022/09/13 00:15:43;;;;;;;2.15;0.80;;;;;;;14.98;50.93;92687.72;2049867;70;20205;-75
2022/09/13 00:18:08;;;;;;;3.55;0.70;;;;;;;14.89;51.95;92678.16;2050415;70;20238;-76
2022/09/13 00:20:34;;;;;;;1.33;0.73;;;;;;;14.89;50.82;92671.72;2044523;70;20207;-75
2022/09/13 00:23:00;;;;;;;2.50;0.70;;;;;;;14.88;51.42;92670.28;2050348;70;20149;-77
2022/09/13 00:25:25;;;;;;;1.95;0.80;;;;;;;14.82;52.42;92661.50;2049085;70;20167;-76
2022/09/13 00:27:55;;;;;;;5.03;0.95;;;;;;;14.81;52.34;92663.63;2049329;70;20189;-75
2022/09/13 00:30:22;;;;;;;3.45;0.90;;;;;;;14.74;51.66;92662.59;2047650;70;20248;-75
2022/09/13 00:32:47;;;;;;;1.33;0.80;;;;;;;14.59;52.49;92669.00;2049199;70;20653;-75
2022/09/13 00:35:13;;;;;;;1.00;0.70;;;;;;;14.61;52.55;92677.59;2044667;70;20259;-74
2022/09/13 00:37:39;;;;;;;3.38;0.98;;;;;;;14.66;52.36;92658.66;2049677;70;20518;-75
2022/09/13 00:40:06;;;;;;;1.98;0.80;;;;;;;14.76;51.45;92655.59;2049431;70;20170;-75
2022/09/13 00:42:32;;;;;;;1.83;0.70;;;;;;;14.79;50.91;92665.63;2046561;70;20233;-75
2022/09/13 00:45:05;;;;;;;2.85;0.75;;;;;;;14.85;49.52;92652.47;2048021;70;20206;-75
2022/09/13 00:47:51;;;;;;;1.25;0.90;;;;;;;14.60;51.19;92647.81;2046778;70;20222;-74
2022/09/13 00:50:35;;;;;;;1.58;0.80;;;;;;;14.66;51.36;92653.75;2046314;70;20138;-76
2022/09/13 00:53:08;;;;;;;4.25;0.90;;;;;;;14.57;53.03;92651.94;2049085;70;20568;-74
2022/09/13 00:55:59;;;;;;;1.92;0.85;;;;;;;14.29;53.22;92654.16;2046345;70;20569;-75
2022/09/13 00:58:31;;;;;;;2.65;0.90;;;;;;;14.30;54.14;92646.41;2045290;70;20611;-75
2022/09/13 01:01:02;;;;;;;2.22;1.00;;;;;;;14.43;53.29;92648.41;2047079;70;20178;-74
2022/09/13 01:03:30;;;;;;;2.65;1.30;;;;;;;14.53;52.91;92648.19;2047169;70;20159;-75
2022/09/13 01:06:10;;;;;;;0.88;0.82;;;;;;;14.37;53.43;92645.28;2047002;70;20168;-76
2022/09/13 01:08:39;;;;;;;4.47;1.00;;;;;;;14.39;53.33;92660.28;2046774;70;20155;-73
2022/09/13 01:11:10;;;;;;;1.17;0.73;;;;;;;14.19;54.35;92645.19;2048105;70;20166;-76
2022/09/13 01:13:38;;;;;;;1.25;1.15;;;;;;;14.17;55.29;92645.84;2049789;70;20147;-75
2022/09/13 01:16:04;;;;;;;1.80;1.05;;;;;;;14.20;54.78;92641.72;2050469;70;20138;-75
2022/09/13 01:18:30;;;;;;;9.95;0.90;;;;;;;14.15;54.30;92639.34;2047762;70;20237;-75
2022/09/13 01:21:18;;;;;;;3.13;0.95;;;;;;;14.11;55.13;92639.13;2048389;70;20151;-76
2022/09/13 01:24:35;;;;;;;2.10;1.00;;;;;;;14.06;55.15;92632.56;2048780;70;20640;-75
2022/09/13 01:27:07;;;;;;;1.45;0.88;;;;;;;13.33;58.44;92635.47;2045977;70;20503;-75
2022/09/13 01:30:02;;;;;;;1.75;0.90;;;;;;;13.75;56.34;92641.72;2044510;70;20162;-75
2022/09/13 01:32:52;;;;;;;1.73;1.00;;;;;;;13.83;56.33;92635.69;2041268;70;20162;-75
2022/09/13 01:35:50;;;;;;;1.95;0.95;;;;;;;13.81;56.02;92633.53;2047250;70;20146;-76
2022/09/13 01:38:41;;;;;;;3.50;1.00;;;;;;;13.42;57.64;92634.50;2050393;70;20170;-76
2022/09/13 01:41:23;;;;;;;4.22;1.23;;;;;;;13.65;56.63;92644.03;2049423;70;20245;-76
2022/09/13 01:44:08;;;;;;;1.33;0.80;;;;;;;13.78;56.30;92639.72;2047311;70;20614;-76
2022/09/13 01:46:52;;;;;;;3.55;1.27;;;;;;;13.69;56.35;92635.75;2047894;70;20153;-76
2022/09/13 01:49:30;;;;;;;1.23;1.00;;;;;;;13.69;57.30;92630.81;2047161;70;20162;-76
2022/09/13 01:52:00;;;;;;;1.95;1.10;;;;;;;13.48;57.31;92629.13;2044686;70;20206;-76
2022/09/13 01:54:35;;;;;;;2.40;1.25;;;;;;;13.55;57.59;92638.63;2043235;70;20158;-76
2022/09/13 01:57:38;;;;;;;4.07;1.20;;;;;;;13.61;57.13;92635.38;2045877;70;20159;-75
2022/09/13 02:00:11;;;;;;;4.35;1.10;;;;;;;13.57;57.64;92638.00;2044350;70;20181;-76
2022/09/13 02:02:45;;;;;;;6.43;1.33;;;;;;;13.48;57.35;92634.78;2050301;70;20166;-75
2022/09/13 02:05:23;;;;;;;2.83;1.10;;;;;;;13.46;57.19;92650.91;2050411;70;20154;-76
2022/09/13 02:07:59;;;;;;;3.17;1.10;;;;;;;13.26;58.63;92647.81;2046359;70;20151;-75
2022/09/13 02:10:39;;;;;;;4.28;1.33;;;;;;;13.30;58.87;92644.47;2053523;70;20244;-75
2022/09/13 02:13:10;;;;;;;3.83;1.20;;;;;;;13.27;59.07;92645.72;2054178;70;20150;-75
2022/09/13 02:15:41;;;;;;;3.38;1.13;;;;;;;13.30;58.91;92642.38;2052014;70;20612;-75
2022/09/13 02:18:11;;;;;;;2.13;1.02;;;;;;;13.30;58.49;92650.13;2050221;70;20139;-74
2022/09/13 02:20:47;;;;;;;3.97;1.08;;;;;;;13.35;58.42;92652.50;2050418;70;20153;-74
2022/09/13 02:23:18;;;;;;;2.80;1.10;;;;;;;13.18;59.47;92648.09;2053692;70;20561;-75
2022/09/13 02:25:46;;;;;;;2.72;0.95;;;;;;;12.95;60.02;92642.69;2052108;70;20241;-75
2022/09/13 02:28:19;;;;;;;1.55;1.10;;;;;;;13.04;59.57;92638.91;2050525;70;20602;-76
2022/09/13 02:30:50;;;;;;;1.50;1.00;;;;;;;13.26;57.49;92633.69;2053111;70;20262;-75
2022/09/13 02:33:20;;;;;;;1.25;0.85;;;;;;;13.20;58.40;92625.59;2049697;70;20146;-75
2022/09/13 02:35:58;;;;;;;2.42;1.10;;;;;;;13.34;57.22;92633.34;2050796;70;20166;-75
2022/09/13 02:38:31;;;;;;;1.75;1.15;;;;;;;13.20;58.17;92633.34;2050509;70;20205;-75
2022/09/13 02:40:59;;;;;;;;;;;;;;;13.30;57.68;92628.22;2053640;70;20623;-75
2022/09/13 02:43:38;;;;;;;2.10;0.98;;;;;;;13.39;56.69;92629.38;2051942;70;20039;-76
2022/09/13 02:46:54;;;;;;;2.80;0.90;;;;;;;13.11;58.99;92637.88;2052173;70;20182;-76
2022/09/13 02:49:25;;;;;;;4.72;1.00;;;;;;;12.97;58.72;92631.50;2050536;70;20221;-75
2022/09/13 02:51:56;;;;;;;2.92;1.00;;;;;;;13.18;56.99;92627.59;2052260;70;20149;-75
2022/09/13 02:54:31;;;;;;;1.50;0.80;;;;;;;12.93;58.39;92631.28;2052785;70;20146;-75
2022/09/13 02:57:17;;;;;;;4.30;1.00;;;;;;;13.01;57.98;92620.38;2049582;70;20594;-76
2022/09/13 02:59:45;;;;;;;4.25;1.05;;;;;;;12.99;58.70;92637.25;2053678;70;20274;-76
2022/09/13 03:02:15;;;;;;;1.88;0.90;;;;;;;13.01;58.10;92628.13;2054151;70;20295;-75
2022/09/13 03:04:41;;;;;;;3.10;0.80;;;;;;;13.24;54.38;92633.59;2052804;70;20265;-76
2022/09/13 03:07:12;;;;;;;3.33;0.70;;;;;;;13.31;53.71;92632.50;2053492;70;20657;-76
2022/09/13 03:09:47;;;;;;;1.90;0.80;;;;;;;13.38;53.76;92627.91;2050271;70;20193;-76
2022/09/13 03:12:40;;;;;;;2.67;0.88;;;;;;;13.35;54.03;92629.16;2050148;70;20201;-76
2022/09/13 03:15:29;;;;;;;1.10;0.50;;;;;;;13.41;54.04;92621.69;2050783;70;20161;-76
2022/09/13 03:18:05;;;;;;;2.60;0.70;;;;;;;13.37;54.16;92615.13;2052358;70;20166;-76
2022/09/13 03:21:09;;;;;;;3.40;0.80;;;;;;;13.29;56.20;92626.78;2051821;69;20158;-75
2022/09/13 03:23:54;;;;;;;1.33;0.50;;;;;;;13.25;55.92;92614.53;2050759;70;20254;-75
2022/09/13 03:26:32;;;;;;;1.88;0.80;;;;;;;13.30;53.77;92616.91;2050067;70;20305;-75
2022/09/13 03:29:30;;;;;;;0.75;0.60;;;;;;;13.45;52.99;92616.25;2052064;70;20628;-75
2022/09/13 03:32:25;;;;;;;0.82;0.60;;;;;;;13.41;54.01;92616.03;2049750;70;20150;-74
2022/09/13 03:34:58;;;;;;;4.60;0.95;;;;;;;12.92;57.81;92612.84;2052126;70;20154;-75
2022/09/13 03:37:31;;;;;;;2.25;1.00;;;;;;;13.01;56.67;92622.47;2052353;70;20245;-75
2022/09/13 03:40:00;;;;;;;3.15;0.95;;;;;;;13.05;57.26;92623.41;2053693;70;20705;-74
2022/09/13 03:42:51;;;;;;;4.60;0.88;;;;;;;12.88;58.13;92636.00;2051259;70;20181;-76
2022/09/13 03:45:25;;;;;;;3.70;1.23;;;;;;;13.03;57.53;92631.06;2044630;70;20600;-75
2022/09/13 03:47:51;;;;;;;2.53;0.85;;;;;;;13.01;57.61;92628.13;2046842;70;20606;-75
2022/09/13 03:50:21;;;;;;;4.20;0.93;;;;;;;13.14;56.85;92624.56;2050341;70;20476;-75
2022/09/13 03:52:50;;;;;;;2.08;0.60;;;;;;;13.16;56.12;92616.91;2047792;70;20150;-74
2022/09/13 03:55:20;;;;;;;1.17;0.57;;;;;;;13.13;55.96;92620.28;2039625;70;21066;-75
2022/09/13 03:57:46;;;;;;;2.85;0.80;;;;;;;13.08;56.88;92619.34;2043258;70;20251;-74
2022/09/13 04:00:13;;;;;;;1.50;0.70;;;;;;;12.92;57.96;92616.44;2047074;70;20398;-74
2022/09/13 04:02:39;;;;;;;3.55;0.77;;;;;;;12.78;58.76;92632.63;2047835;70;20197;-75
2022/09/13 04:05:05;;;;;;;6.30;0.90;;;;;;;12.84;58.64;92635.78;2049384;70;20261;-76
2022/09/13 04:07:32;;;;;;;2.30;0.77;;;;;;;12.84;57.86;92635.78;2050763;70;20146;-75
2022/09/13 04:09:58;;;;;;;1.15;1.00;;;;;;;12.82;58.46;92641.31;2047152;70;20160;-76
2022/09/13 04:12:24;;;;;;;4.32;0.93;;;;;;;12.90;57.53;92647.41;2049248;70;20159;-75
2022/09/13 04:14:51;;;;;;;4.60;1.00;;;;;;;12.79;59.05;92645.41;2050175;70;20170;-76
2022/09/13 04:17:17;;;;;;;2.42;1.08;;;;;;;12.44;59.87;92643.59;2046697;70;20241;-75
2022/09/13 04:19:46;;;;;;;5.03;1.13;;;;;;;12.69;58.99;92639.22;2050661;70;20225;-75
2022/09/13 04:22:12;;;;;;;2.45;1.00;;;;;;;12.80;57.80;92635.59;2048931;70;20305;-75
2022/09/13 04:24:38;;;;;;;4.25;1.10;;;;;;;12.62;58.26;92629.00;2039520;70;20317;-74
2022/09/13 04:27:05;;;;;;;4.03;1.00;;;;;;;12.76;56.99;92629.72;2035434;70;20309;-75
2022/09/13 04:29:31;;;;;;;3.80;1.20;;;;;;;12.84;56.54;92630.16;2039717;70;20194;-75
2022/09/13 04:31:58;;;;;;;6.53;1.63;;;;;;;12.80;58.05;92640.50;2039824;70;20665;-76
2022/09/13 04:34:24;;;;;;;4.30;1.70;;;;;;;12.65;58.68;92647.50;2038305;70;20206;-75
2022/09/13 04:36:51;;;;;;;2.75;1.25;;;;;;;12.78;57.85;92641.13;2038348;70;20225;-75
2022/09/13 04:39:18;;;;;;;3.80;1.13;;;;;;;12.78;57.48;92643.22;2041049;70;20237;-76
2022/09/13 04:41:46;;;;;;;0.60;0.60;;;;;;;12.74;57.91;92640.94;2039105;70;20585;-77
2022/09/13 04:44:14;;;;;;;3.80;1.25;;;;;;;12.08;61.16;92641.66;2047714;70;20594;-76
2022/09/13 04:46:40;;;;;;;4.75;1.30;;;;;;;12.43;59.43;92639.31;2051501;70;20566;-79
2022/09/13 04:49:08;;;;;;;2.72;1.13;;;;;;;12.56;59.80;92642.81;2053942;70;20184;-76
2022/09/13 04:51:33;;;;;;;4.50;1.40;;;;;;;12.79;58.26;92645.41;2052696;70;20152;-75
2022/09/13 04:53:59;;;;;;;4.88;1.17;;;;;;;12.53;59.52;92653.25;2048502;70;20157;-75
2022/09/13 04:56:26;;;;;;;4.43;1.10;;;;;;;12.58;59.02;92654.19;2053356;70;20559;-75
2022/09/13 04:58:53;;;;;;;2.78;0.88;;;;;;;12.56;59.94;92652.00;2051115;70;20177;-75
2022/09/13 05:01:20;;;;;;;3.13;1.33;;;;;;;12.72;58.54;92658.47;2050641;70;20290;-76
2022/09/13 05:03:46;;;;;;;3.08;0.93;;;;;;;12.69;59.85;92647.69;2051655;70;20225;-77
2022/09/13 05:06:18;;;;;;;2.35;0.70;;;;;;;12.79;58.28;92645.41;2047582;69;20725;-76
2022/09/13 05:08:49;;;;;;;3.35;1.02;;;;;;;12.79;58.20;92653.16;2043013;70;20173;-75
2022/09/13 05:11:14;;;;;;;2.67;0.80;;;;;;;12.90;57.24;92650.22;2042546;70;20197;-75
2022/09/13 05:13:40;;;;;;;4.47;1.25;;;;;;;12.30;60.21;92650.59;2042546;70;20186;-75
2022/09/13 05:16:06;;;;;;;2.47;0.70;;;;;;;12.64;59.19;92638.28;2049965;70;20213;-76
2022/09/13 05:18:34;;;;;;;1.80;0.52;;;;;;;12.75;58.84;92638.84;2050687;70;20158;-75
2022/09/13 05:21:02;;;;;;;3.03;0.70;;;;;;;12.98;56.99;92639.34;2043074;70;20138;-75
2022/09/13 05:23:30;;;;;;;2.25;0.93;;;;;;;12.66;58.92;92640.50;2051727;70;20260;-76
2022/09/13 05:26:01;;;;;;;2.53;1.58;;;;;;;12.55;59.60;92653.34;2053246;70;20177;-75
2022/09/13 05:28:29;;;;;;;3.95;1.20;;;;;;;12.62;60.05;92651.56;2051270;70;20162;-77
2022/09/13 05:31:18;;;;;;;1.02;0.90;;;;;;;12.73;59.22;92653.56;2050160;70;20301;-76
2022/09/13 05:33:51;;;;;;;2.05;0.60;;;;;;;12.87;59.36;92654.28;2051690;70;20190;-75
2022/09/13 05:36:23;;;;;;;0.88;0.60;;;;;;;12.96;57.14;92659.00;2049750;70;20150;-76
2022/09/13 05:38:51;;;;;;;4.82;0.93;;;;;;;13.22;55.83;92653.25;2049331;70;20170;-76
2022/09/13 05:41:17;;;;;;;2.15;0.93;;;;;;;13.19;56.59;92643.94;2048624;70;20175;-76
2022/09/13 05:43:43;;;;;;;7.28;1.30;;;;;;;12.97;57.37;92649.19;2050638;70;20491;-76
2022/09/13 05:46:11;;;;;;;3.63;1.00;;;;;;;13.08;56.75;92653.25;2046696;70;20626;-76
2022/09/13 05:48:37;;;;;;;2.97;1.10;;;;;;;13.19;56.67;92655.25;2046181;70;20189;-75
2022/09/13 05:51:09;;;;;;;3.28;1.50;;;;;;;12.85;58.52;92656.28;2047149;70;20664;-76
2022/09/13 05:53:38;;;;;;;3.38;1.65;;;;;;;12.97;59.21;92666.13;2047765;70;20168;-77
2022/09/13 05:56:07;;;;;;;4.80;1.60;;;;;;;13.07;57.81;92663.09;2047063;70;20173;-75
2022/09/13 05:58:37;;;;;;;3.80;1.40;;;;;;;13.07;58.01;92663.09;2045067;70;20199;-77
2022/09/13 06:01:02;;;;;;;5.00;1.48;;;;;;;13.06;58.69;92655.25;2049966;70;20549;-78
2022/09/13 06:03:28;;;;;;;3.40;1.95;;;;;;;13.20;58.43;92659.53;2049125;70;20245;-76
2022/09/13 06:05:55;;;;;;;5.15;1.25;;;;;;;13.25;57.56;92666.16;2048196;70;20182;-77
2022/09/13 06:08:23;;;;;;;2.58;1.40;;;;;;;13.28;57.69;92653.56;2049936;70;20146;-77
2022/09/13 06:10:57;;;;;;;2.20;1.23;;;;;;;13.02;58.81;92641.66;2043125;70;20198;-78
2022/09/13 06:13:23;;;;;;;3.95;1.20;;;;;;;13.17;58.40;92657.94;2045450;70;20193;-74
2022/09/13 06:15:51;;;;;;;1.33;1.15;;;;;;;13.23;59.08;92654.72;2047158;70;20196;-75
2022/09/13 06:18:17;;;;;;;3.10;1.88;;;;;;;13.06;59.71;92649.59;2046587;70;20583;-77
2022/09/13 06:20:43;;;;;;;4.40;2.22;;;;;;;12.92;59.80;92646.75;2043778;70;20178;-77
2022/09/13 06:23:08;;;;;;;3.78;1.60;;;;;;;13.08;59.75;92650.41;2046123;70;20226;-77
2022/09/13 06:25:34;;;;;;;7.13;1.52;;;;;;;13.17;59.00;92652.28;2048122;70;20608;-76
2022/09/13 06:27:59;;;;;;;2.78;1.90;;;;;;;12.95;60.85;92651.88;2049442;70;20153;-75
2022/09/13 06:30:25;;;;;;;7.57;2.58;;;;;;;13.13;59.75;92654.19;2047766;70;20188;-76
2022/09/13 06:32:50;;;;;;;10.75;2.03;;;;;;;13.18;59.99;92653.03;2046803;70;20529;-77
2022/09/13 06:35:16;;;;;;;3.03;1.60;;;;;;;13.19;60.74;92646.00;2047327;70;20250;-75
2022/09/13 06:37:42;;;;;;;7.80;2.03;;;;;;;13.27;59.88;92642.88;2048207;70;20147;-76
2022/09/13 06:40:08;;;;;;;3.55;1.10;;;;;;;13.20;60.49;92644.66;2047779;70;20609;-74
2022/09/13 06:42:35;;;;;;;5.25;1.98;;;;;;;13.16;60.38;92650.84;2048078;70;20222;-77
2022/09/13 06:45:02;;;;;;;4.88;1.30;;;;;;;13.18;60.71;92656.59;2047450;70;20229;-77
2022/09/13 06:47:28;;;;;;;3.30;1.58;;;;;;;13.29;60.19;92649.38;2048205;70;20222;-76
2022/09/13 06:49:53;;;;;;;5.00;1.75;;;;;;;13.28;60.46;92642.25;2048566;70;20225;-75
2022/09/13 06:52:19;;;;;;;6.30;1.73;;;;;;;13.40;58.44;92648.50;2041922;70;20134;-76
2022/09/13 06:54:44;;;;;;;1.83;1.40;;;;;;;13.54;56.63;92648.47;2049722;70;20146;-74
2022/09/13 06:57:10;;;;;;;3.15;1.80;;;;;;;13.46;59.41;92650.91;2048855;70;20178;-76
2022/09/13 06:59:36;;;;;;;3.17;1.67;;;;;;;13.53;58.90;92644.19;2045932;70;20194;-76
2022/09/13 07:02:02;;;;;;;3.97;1.70;;;;;;;13.37;60.87;92649.78;2046186;70;20135;-75
2022/09/13 07:04:30;;;;;;;6.22;2.83;;;;;;;13.69;59.26;92652.72;2047485;70;20565;-77
2022/09/13 07:06:58;;;;;;;2.90;1.63;;;;;;;14.05;61.42;92647.34;2047824;70;20259;-76
2022/09/13 07:09:25;;;;;;;3.58;1.27;;;;;;;14.53;59.45;92653.84;2048928;70;20155;-76
2022/09/13 07:11:53;;;;;;;3.97;1.30;;;;;;;14.88;59.11;92642.66;2047410;70;20139;-75
2022/09/13 07:14:24;;;;;;;5.93;1.85;;;;;;;15.23;58.47;92644.91;2043404;70;20166;-74
2022/09/13 07:16:51;;;;;;;3.47;1.58;;;;;;;15.44;57.08;92651.41;2047573;70;20153;-75
2022/09/13 07:19:21;;;;;;;7.13;1.45;;;;;;;15.69;56.98;92645.41;2048347;70;20575;-74
2022/09/13 07:21:48;;;;;;;2.20;1.13;;;;;;;16.27;56.77;92640.63;2050299;70;20548;-74
2022/09/13 07:24:18;;;;;;;5.18;1.02;;;;;;;16.73;53.72;92646.66;2049415;70;20174;-75
2022/09/13 07:26:45;;;;;;;4.05;1.00;;;;;;;16.92;53.02;92644.47;2050546;70;20277;-75
2022/09/13 07:29:14;;;;;;;2.20;1.17;;;;;;;17.23;51.54;92634.91;2049679;70;20141;-75
2022/09/13 07:31:41;;;;;;;2.83;0.90;;;;;;;17.53;52.25;92630.25;2047979;70;20157;-76
2022/09/13 07:34:16;;;;;;;1.65;0.90;;;;;;;18.12;48.76;92627.94;2049446;70;20317;-75
2022/09/13 07:36:43;;;;;;;1.67;0.90;;;;;;;19.07;46.56;92630.09;2045637;70;20201;-75
2022/09/13 07:39:09;;;;;;;1.80;1.02;;;;;;;18.28;46.78;92620.63;2043111;70;20233;-74
2022/09/13 07:41:35;;;;;;;3.78;1.00;;;;;;;18.50;46.55;92614.13;2041255;70;20150;-74
2022/09/13 07:44:03;;;;;;;1.45;1.02;;;;;;;18.89;46.24;92612.44;2046038;70;20154;-75
2022/09/13 07:46:35;;;;;;;2.47;1.10;;;;;;;19.26;49.56;92603.50;2046740;70;20233;-74
2022/09/13 07:49:01;;;;;;;4.03;1.50;;;;;;;19.47;47.94;92609.75;2046502;70;20578;-75
2022/09/13 07:51:32;;;;;;;1.55;1.20;;;;;;;20.00;46.89;92608.25;2042436;70;20150;-75
2022/09/13 07:54:01;;;;;;;1.95;1.30;;;;;;;19.93;46.72;92595.97;2046150;70;20147;-76
2022/09/13 07:56:29;;;;;;;1.65;1.00;;;;;;;20.04;47.26;92594.06;2047969;70;20241;-75
2022/09/13 07:58:59;;;;;;;2.58;0.93;;;;;;;20.22;46.24;92597.38;2042343;70;20158;-75
2022/09/13 08:01:30;;;;;;;3.72;0.93;;;;;;;21.58;41.59;92601.69;2047551;70;20639;-75
2022/09/13 08:04:00;;;;;;;1.67;1.10;;;;;;;22.19;40.62;92599.16;2047235;70;20284;-76
2022/09/13 08:06:28;;;;;;;2.13;1.30;;;;;;;21.01;43.59;92614.84;2046276;70;20249;-75
2022/09/13 08:08:54;;;;;;;3.40;2.03;;;;;;;21.46;44.38;92616.47;2047103;70;20203;-75
2022/09/13 08:11:22;;;;;;;5.03;2.08;;;;;;;21.51;43.35;92603.69;2049205;70;20316;-76
2022/09/13 08:13:50;;;;;;;2.97;1.20;;;;;;;21.82;42.09;92604.97;2047339;70;20154;-76
2022/09/13 08:16:17;;;;;;;2.25;0.90;;;;;;;22.13;43.02;92599.78;2046348;70;20206;-75
2022/09/13 08:18:55;;;;;;;2.78;0.90;;;;;;;22.10;42.73;92583.22;2047814;70;20146;-75
2022/09/13 08:21:23;;;;;;;2.35;0.98;;;;;;;22.35;42.45;92584.34;2047209;70;20250;-74
2022/09/13 08:23:49;;;;;;;2.78;0.90;;;;;;;22.67;40.23;92578.34;2044787;70;20237;-75
2022/09/13 08:26:16;;;;;;;2.70;1.13;;;;;;;22.72;40.69;92579.84;2046896;70;20533;-73
2022/09/13 08:28:41;;;;;;;4.65;0.88;;;;;;;23.57;41.00;92578.03;2048115;70;20178;-75
2022/09/13 08:31:14;;;;;;;5.55;0.90;;;;;;;23.72;39.53;92576.06;2044415;70;20143;-76
2022/09/13 08:33:42;;;;;;;3.78;0.70;;;;;;;24.24;39.74;92580.84;2047466;70;20151;-75
2022/09/13 08:36:08;;;;;;;1.80;0.70;;;;;;;24.59;37.84;92573.19;2047370;70;20142;-75
2022/09/13 08:38:33;;;;;;;1.30;0.70;;;;;;;24.55;38.73;92572.44;2048269;70;20166;-76
2022/09/13 08:41:23;;;;;;;1.55;0.68;;;;;;;24.59;37.23;92566.72;2047622;70;20582;-75
2022/09/13 08:43:58;;;;;;;1.55;0.90;;;;;;;24.76;38.80;92562.50;2042509;70;20151;-75
2022/09/13 08:46:45;;;;;;;1.80;0.88;;;;;;;25.53;37.58;92570.06;2046137;70;20200;-76
2022/09/13 08:49:17;;;;;;;1.42;0.80;;;;;;;25.41;38.51;92567.88;2046933;70;20183;-76
2022/09/13 08:51:58;;;;;;;6.82;1.02;;;;;;;25.52;36.28;92569.34;2042036;70;20162;-75
2022/09/13 08:54:24;;;;;;;1.02;0.73;;;;;;;25.66;35.61;92574.44;2049157;70;20226;-74
2022/09/13 08:56:49;;;;;;;1.85;0.85;;;;;;;25.80;34.84;92568.00;2047882;70;20189;-74
2022/09/13 08:59:45;;;;;;;0.90;0.80;;;;;;;25.74;34.40;92574.44;2049931;70;20150;-74
2022/09/13 09:02:29;;;;;;;0.80;0.80;;;;;;;25.81;36.26;92564.41;2046357;70;20299;-75
2022/09/13 09:05:04;;;;;;;3.05;0.70;;;;;;;26.38;35.70;92566.59;2047399;70;20326;-75
2022/09/13 09:07:39;;;;;;;2.63;0.80;;;;;;;27.01;34.39;92562.91;2047124;70;20210;-75
2022/09/13 09:10:13;;;;;;;0.90;0.70;;;;;;;26.31;34.26;92559.38;2048154;70;20173;-75
2022/09/13 09:12:48;;;;;;;2.40;0.80;;;;;;;26.15;33.85;92551.44;2044453;70;20221;-75
2022/09/13 09:15:19;;;;;;;1.45;0.70;;;;;;;27.09;34.68;92552.09;2047080;70;20165;-76
2022/09/13 09:18:13;;;;;;;2.33;0.70;;;;;;;26.75;32.70;92549.25;2046383;70;20683;-75
2022/09/13 09:20:45;;;;;;;1.23;0.70;;;;;;;27.08;33.86;92550.66;2049425;70;20158;-74
2022/09/13 09:23:19;;;;;;;2.85;0.70;;;;;;;27.90;32.34;92552.44;2045631;70;20158;-74
2022/09/13 09:25:46;;;;;;;1.20;0.68;;;;;;;27.60;33.56;92554.03;2044242;70;20250;-74
2022/09/13 09:28:17;;;;;;;2.10;0.75;;;;;;;27.28;30.43;92537.56;2048669;70;20163;-74
2022/09/13 09:30:59;;;;;;;3.22;0.70;;;;;;;27.50;32.56;92539.63;2047492;70;20147;-74
2022/09/13 09:33:44;;;;;;;1.10;0.80;;;;;;;27.89;30.51;92536.53;2045335;70;20622;-74
2022/09/13 09:36:21;;;;;;;1.27;0.80;;;;;;;28.21;30.60;92532.69;2045324;70;20196;-75
2022/09/13 09:38:47;;;;;;;3.47;0.90;;;;;;;28.55;32.03;92534.59;2046434;70;20476;-75
2022/09/13 09:41:30;;;;;;;3.22;0.90;;;;;;;28.42;31.70;92531.09;2046058;70;20279;-75
2022/09/13 09:44:08;;;;;;;1.27;0.80;;;;;;;29.19;31.15;92529.63;2046135;70;20273;-75
2022/09/13 09:46:38;;;;;;;2.30;0.70;;;;;;;29.98;30.55;92522.06;2044763;70;20158;-76
2022/09/13 09:52:06;;;;;;;4.03;0.70;;;;;;;29.82;29.52;92523.00;2045831;70;20612;-74
2022/09/13 09:54:33;;;;;;;1.00;0.70;;;;;;;29.31;30.07;92517.84;2045156;70;20176;-75
2022/09/13 09:56:59;;;;;;;2.88;0.80;;;;;;;29.79;30.93;92512.19;2048864;70;20142;-75
2022/09/13 09:59:32;;;;;;;1.60;0.70;;;;;;;30.28;30.29;92502.75;2049704;70;20239;-75
2022/09/13 10:02:13;;;;;;;0.82;0.70;;;;;;;30.81;30.31;92496.06;2049083;70;20189;-76
2022/09/13 10:04:39;;;;;;;3.28;0.73;;;;;;;29.12;31.04;92491.28;2049184;70;20709;-75
2022/09/13 10:07:28;;;;;;;5.75;1.00;;;;;;;29.62;30.76;92491.41;2049230;70;20626;-75
2022/09/13 10:10:46;;;;;;;1.02;0.60;;;;;;;29.24;32.47;92489.72;2047210;70;20143;-75
2022/09/13 10:13:17;;;;;;;3.20;0.80;;;;;;;29.52;31.54;92483.53;2046741;70;20170;-76
2022/09/13 10:15:59;;;;;;;1.25;0.73;;;;;;;29.92;30.87;92475.00;2050197;70;20549;-74
2022/09/13 10:18:26;;;;;;;3.03;0.88;;;;;;;30.04;30.87;92486.44;2043927;70;20634;-74
2022/09/13 10:21:05;;;;;;;3.60;0.63;;;;;;;30.46;30.09;92478.50;2046015;70;20537;-75
2022/09/13 10:23:34;;;;;;;2.15;0.90;;;;;;;28.66;31.42;92475.13;2047138;70;20240;-75
2022/09/13 10:26:16;;;;;;;2.70;0.95;;;;;;;28.93;30.55;92469.75;2049660;70;20178;-74
2022/09/13 10:28:45;;;;;;;;;;;;;;;28.86;31.39;92477.06;2046721;70;20149;-77
2022/09/13 10:31:16;;;;;;;1.67;1.00;;;;;;;29.90;31.37;92466.34;2047813;70;20142;-76
2022/09/13 10:34:23;;;;;;;2.53;0.68;;;;;;;30.63;29.96;92465.13;2043641;70;20632;-76
2022/09/13 10:37:11;;;;;;;3.85;0.70;;;;;;;30.03;30.75;92470.50;2040114;70;20147;-76
2022/09/13 10:39:48;;;;;;;2.72;0.80;;;;;;;31.52;29.20;92474.31;2040213;70;20222;-76
2022/09/13 10:42:22;;;;;;;2.58;0.80;;;;;;;32.91;28.39;92473.25;2039270;70;20343;-77
2022/09/13 10:45:07;;;;;;;3.35;0.90;;;;;;;33.18;26.44;92467.41;2040674;70;20178;-77
2022/09/13 10:47:55;;;;;;;5.05;0.73;;;;;;;33.05;27.19;92464.81;2043081;70;20174;-76
2022/09/13 10:50:27;;;;;;;4.50;0.80;;;;;;;33.59;26.57;92466.97;2042671;70;20649;-77
2022/09/13 10:52:53;;;;;;;;;;;;;;;35.38;24.99;92461.09;2043306;70;20139;-79
2022/09/13 10:55:19;;;;;;;1.58;0.70;;;;;;;35.59;24.42;92472.06;2043365;70;20047;-76
2022/09/13 10:57:48;;;;;;;3.80;1.15;;;;;;;36.08;23.30;92461.44;2043507;70;20190;-77
2022/09/13 11:00:55;;;;;;;2.58;0.82;;;;;;;38.45;21.26;92459.97;2042244;70;20326;-76
2022/09/13 11:03:24;;;;;;;5.18;0.90;;;;;;;39.58;20.03;92464.53;2041826;70;20161;-78
2022/09/13 11:06:11;;;;;;;2.97;1.13;;;;;;;40.76;19.38;92463.25;2044543;70;20169;-76
2022/09/13 11:08:49;;;;;;;4.10;1.08;;;;;;;37.40;22.30;92440.56;2053134;70;20285;-76
2022/09/13 11:11:30;;;;;;;5.20;1.23;;;;;;;39.06;21.36;92448.81;2053755;69;20150;-76
2022/09/13 11:14:09;;;;;;;2.92;0.98;;;;;;;40.84;19.79;92442.84;2053048;70;20653;-75
2022/09/13 11:17:02;;;;;;;3.33;0.82;;;;;;;42.29;18.22;92454.03;2048949;70;20559;-76
2022/09/13 11:19:47;;;;;;;4.30;1.10;;;;;;;43.63;17.73;92445.16;2052458;70;20229;-81
2022/09/13 11:22:35;;;;;;;2.90;0.70;;;;;;;43.16;17.15;92438.03;2054108;70;20601;-79
2022/09/13 11:25:30;;;;;;;3.33;1.13;;;;;;;42.68;17.41;92436.78;2052765;70;20328;-79
2022/09/13 11:28:33;;;;;;;2.22;0.70;;;;;;;43.62;17.09;92431.91;2048335;70;20168;-78
2022/09/13 11:31:24;;;;;;;3.25;0.80;;;;;;;41.98;17.16;92425.72;2046712;70;20587;-76
2022/09/13 11:34:09;;;;;;;3.33;0.80;;;;;;;45.31;16.28;92433.75;2046733;70;20201;-76
2022/09/13 11:37:11;;;;;;;3.42;1.05;;;;;;;44.93;16.58;92434.41;2046179;70;20552;-77
2022/09/13 11:39:55;;;;;;;5.03;1.10;;;;;;;46.74;16.14;92425.53;2046200;70;20229;-80
2022/09/13 11:42:43;;;;;;;5.88;1.02;;;;;;;46.20;16.06;92436.63;2046580;70;20256;-80
2022/09/13 11:45:21;;;;;;;3.28;0.90;;;;;;;45.34;16.27;92429.06;2046576;70;20158;-80
2022/09/13 11:48:19;;;;;;;4.57;1.00;;;;;;;46.39;14.71;92427.59;2046331;70;20181;-79
2022/09/13 11:51:05;;;;;;;3.63;0.90;;;;;;;45.22;16.25;92417.41;2044862;70;20238;-80
2022/09/13 11:54:13;;;;;;;2.67;0.82;;;;;;;46.77;14.48;92411.84;2043218;70;20174;-80
2022/09/13 11:56:47;;;;;;;5.45;1.15;;;;;;;46.80;14.69;92403.47;2043613;70;20195;-80
2022/09/13 11:59:31;;;;;;;4.97;1.38;;;;;;;46.18;15.01;92401.06;2042296;70;20149;-79
2022/09/13 12:02:02;;;;;;;4.38;1.08;;;;;;;45.76;15.98;92400.56;2042672;70;20631;-77
2022/09/13 12:04:35;;;;;;;;;;;;;;;47.02;14.99;92386.72;2044652;70;20147;-78
2022/09/13 12:07:06;;;;;;;3.88;1.05;;;;;;;45.53;16.15;92395.00;2048662;70;20093;-79